Little Indian, Illinois
Current Conditions -  °F | °C
As of 5:55 AM on Monday 20 Oct 2014 (Local Time) from KIJX Reporting Station
Clear Clear  
Wind Chill: 11°   Ceiling: Unl
Heat Index: 11°   Visibility: 10mi
Dew Point:   Wind: 5mph
Humidity: 87%   Direction: 220°SW
Pressure: 29.92"   Gusts: NA
Location:  39.9268°N, 90.2187°W
Report Text: KIJX 201055Z AUTO 22004KT 10SM CLR 11/09 A2992 RMK AO2 T01080088
Loading
Personal Weather Stations






























Interactive Weather Map
Tropical Storm Tracking
New forecast layout! Learn more

10-Day Weather Forecast

Advertisements
Track Severe Weather on mobile